sensor_id;sensor_type;location;lat;lon;timestamp;pressure;altitude;pressure_sealevel;temperature;humidity
67931;BME280;63902;52.000;5.954;2024-03-02T00:00:12;99483.03;;;7.74;77.15
67931;BME280;63902;52.000;5.954;2024-03-02T00:01:13;99511.50;;;7.85;77.32
67931;BME280;63902;52.000;5.954;2024-03-02T00:02:14;99510.72;;;7.83;77.64
67931;BME280;63902;52.000;5.954;2024-03-02T00:03:15;99509.09;;;7.80;77.54
67931;BME280;63902;52.000;5.954;2024-03-02T00:04:15;99504.66;;;7.81;77.58
67931;BME280;63902;52.000;5.954;2024-03-02T00:05:17;99511.66;;;7.82;77.78
67931;BME280;63902;52.000;5.954;2024-03-02T00:06:20;99509.09;;;7.80;77.38
67931;BME280;63902;52.000;5.954;2024-03-02T00:07:21;99513.53;;;7.80;77.76
67931;BME280;63902;52.000;5.954;2024-03-02T00:08:23;99499.47;;;7.79;77.24
67931;BME280;63902;52.000;5.954;2024-03-02T00:09:24;99513.38;;;7.83;77.16
67931;BME280;63902;52.000;5.954;2024-03-02T00:10:26;99497.69;;;7.80;77.09
67931;BME280;63902;52.000;5.954;2024-03-02T00:11:27;99501.19;;;7.80;77.51
67931;BME280;63902;52.000;5.954;2024-03-02T00:12:27;99492.56;;;7.77;77.65
67931;BME280;63902;52.000;5.954;2024-03-02T00:13:29;99506.38;;;7.82;77.40
67931;BME280;63902;52.000;5.954;2024-03-02T00:14:29;99501.97;;;7.82;77.44
67931;BME280;63902;52.000;5.954;2024-03-02T00:15:40;99498.38;;;7.83;76.83
67931;BME280;63902;52.000;5.954;2024-03-02T00:16:41;99507.09;;;7.85;77.36
67931;BME280;63902;52.000;5.954;2024-03-02T00:17:42;99500.16;;;7.83;77.50
67931;BME280;63902;52.000;5.954;2024-03-02T00:18:42;99501.97;;;7.82;77.96
67931;BME280;63902;52.000;5.954;2024-03-02T00:19:43;99495.91;;;7.80;77.98
67931;BME280;63902;52.000;5.954;2024-03-02T00:20:43;99495.91;;;7.80;78.03
67931;BME280;63902;52.000;5.954;2024-03-02T00:21:45;99488.91;;;7.79;77.66
67931;BME280;63902;52.000;5.954;2024-03-02T00:22:45;99490.72;;;7.79;77.72
67931;BME280;63902;52.000;5.954;2024-03-02T00:23:48;99504.81;;;7.78;77.77
67931;BME280;63902;52.000;5.954;2024-03-02T00:24:49;99500.50;;;7.77;78.12
67931;BME280;63902;52.000;5.954;2024-03-02T00:25:51;99502.28;;;7.76;78.04
67931;BME280;63902;52.000;5.954;2024-03-02T00:26:52;99498.69;;;7.77;77.85
67931;BME280;63902;52.000;5.954;2024-03-02T00:27:52;99485.50;;;7.77;77.89
67931;BME280;63902;52.000;5.954;2024-03-02T00:28:54;99491.72;;;7.76;78.14
67931;BME280;63902;52.000;5.954;2024-03-02T00:29:55;99494.44;;;7.75;78.33
67931;BME280;63902;52.000;5.954;2024-03-02T00:30:59;99483.09;;;7.73;78.11
67931;BME280;63902;52.000;5.954;2024-03-02T00:32:02;99493.72;;;7.71;78.40
67931;BME280;63902;52.000;5.954;2024-03-02T00:33:06;99483.25;;;7.70;78.43
67931;BME280;63902;52.000;5.954;2024-03-02T00:34:07;99489.47;;;7.69;78.60
67931;BME280;63902;52.000;5.954;2024-03-02T00:35:07;99486.81;;;7.69;78.45
67931;BME280;63902;52.000;5.954;2024-03-02T00:36:08;99488.63;;;7.68;78.46
67931;BME280;63902;52.000;5.954;2024-03-02T00:37:11;99483.97;;;7.73;78.36
67931;BME280;63902;52.000;5.954;2024-03-02T00:38:12;99453.38;;;7.52;78.33
67931;BME280;63902;52.000;5.954;2024-03-02T00:39:14;99490.00;;;7.75;78.34
67931;BME280;63902;52.000;5.954;2024-03-02T00:40:15;99500.50;;;7.77;78.34
67931;BME280;63902;52.000;5.954;2024-03-02T00:41:21;99476.31;;;7.67;77.82
67931;BME280;63902;52.000;5.954;2024-03-02T00:42:21;99492.47;;;7.78;78.15
67931;BME280;63902;52.000;5.954;2024-03-02T00:43:42;99488.13;;;7.77;78.14
67931;BME280;63902;52.000;5.954;2024-03-02T00:44:42;99479.38;;;7.77;77.49
67931;BME280;63902;52.000;5.954;2024-03-02T00:45:43;99488.81;;;7.81;77.73
67931;BME280;63902;52.000;5.954;2024-03-02T00:46:43;99493.19;;;7.82;78.09
67931;BME280;63902;52.000;5.954;2024-03-02T00:47:44;99489.72;;;7.81;77.87
67931;BME280;63902;52.000;5.954;2024-03-02T00:48:49;99494.97;;;7.81;77.97
67931;BME280;63902;52.000;5.954;2024-03-02T00:49:51;99501.13;;;7.82;78.15
67931;BME280;63902;52.000;5.954;2024-03-02T00:50:52;99497.63;;;7.81;77.95
67931;BME280;63902;52.000;5.954;2024-03-02T00:51:53;99498.31;;;7.85;77.88
67931;BME280;63902;52.000;5.954;2024-03-02T00:52:55;99500.00;;;7.86;78.16
67931;BME280;63902;52.000;5.954;2024-03-02T00:53:58;99497.38;;;7.86;78.17
67931;BME280;63902;52.000;5.954;2024-03-02T00:54:59;99500.94;;;7.85;78.13
67931;BME280;63902;52.000;5.954;2024-03-02T00:56:01;99498.38;;;7.83;78.32
67931;BME280;63902;52.000;5.954;2024-03-02T00:57:02;99490.63;;;7.80;77.86
67931;BME280;63902;52.000;5.954;2024-03-02T00:58:02;99467.88;;;7.60;77.92
67931;BME280;63902;52.000;5.954;2024-03-02T00:59:03;99500.94;;;7.85;77.76
67931;BME280;63902;52.000;5.954;2024-03-02T01:00:04;99493.88;;;7.85;77.92
67931;BME280;63902;52.000;5.954;2024-03-02T01:01:05;99500.09;;;7.84;77.44
67931;BME280;63902;52.000;5.954;2024-03-02T01:02:06;99498.16;;;7.88;77.99
67931;BME280;63902;52.000;5.954;2024-03-02T01:03:06;99506.06;;;7.88;78.03
67931;BME280;63902;52.000;5.954;2024-03-02T01:04:07;99500.78;;;7.88;78.04
67931;BME280;63902;52.000;5.954;2024-03-02T01:05:07;99508.72;;;7.88;78.28
67931;BME280;63902;52.000;5.954;2024-03-02T01:06:08;99486.59;;;7.73;78.21
67931;BME280;63902;52.000;5.954;2024-03-02T01:07:09;99501.88;;;7.84;77.44
67931;BME280;63902;52.000;5.954;2024-03-02T01:08:11;99516.63;;;7.88;77.72
67931;BME280;63902;52.000;5.954;2024-03-02T01:09:11;99511.81;;;7.79;77.85
67931;BME280;63902;52.000;5.954;2024-03-02T01:10:12;99511.34;;;7.88;77.82
67931;BME280;63902;52.000;5.954;2024-03-02T01:11:12;99529.75;;;7.90;78.09
67931;BME280;63902;52.000;5.954;2024-03-02T01:12:13;99533.25;;;7.90;77.93
67931;BME280;63902;52.000;5.954;2024-03-02T01:13:13;99532.47;;;7.88;77.68
67931;BME280;63902;52.000;5.954;2024-03-02T01:14:14;99526.19;;;7.91;78.14
67931;BME280;63902;52.000;5.954;2024-03-02T01:15:14;99512.13;;;7.90;77.98
67931;BME280;63902;52.000;5.954;2024-03-02T01:16:15;99528.81;;;7.91;77.99
67931;BME280;63902;52.000;5.954;2024-03-02T01:17:15;99523.53;;;7.91;78.06
67931;BME280;63902;52.000;5.954;2024-03-02T01:18:16;99525.25;;;7.92;78.00
67931;BME280;63902;52.000;5.954;2024-03-02T01:19:17;99533.25;;;7.90;77.00
67931;BME280;63902;52.000;5.954;2024-03-02T01:20:17;99543.41;;;7.98;77.16
67931;BME280;63902;52.000;5.954;2024-03-02T01:21:18;99541.50;;;8.01;77.64
67931;BME280;63902;52.000;5.954;2024-03-02T01:22:18;99551.09;;;8.02;77.72
67931;BME280;63902;52.000;5.954;2024-03-02T01:23:20;99548.53;;;8.01;77.48
67931;BME280;63902;52.000;5.954;2024-03-02T01:24:21;99548.53;;;8.01;77.69
67931;BME280;63902;52.000;5.954;2024-03-02T01:25:21;99557.41;;;8.00;77.81
67931;BME280;63902;52.000;5.954;2024-03-02T01:26:22;99562.78;;;7.98;77.69
67931;BME280;63902;52.000;5.954;2024-03-02T01:27:22;99567.91;;;8.01;77.59
67931;BME280;63902;52.000;5.954;2024-03-02T01:28:22;99570.44;;;8.03;77.54
67931;BME280;63902;52.000;5.954;2024-03-02T01:29:23;99576.50;;;8.05;77.36
67931;BME280;63902;52.000;5.954;2024-03-02T01:30:23;99570.28;;;8.06;77.44
67931;BME280;63902;52.000;5.954;2024-03-02T01:31:24;99578.19;;;8.06;77.73
67931;BME280;63902;52.000;5.954;2024-03-02T01:32:24;99580.94;;;8.04;77.74
67931;BME280;63902;52.000;5.954;2024-03-02T01:33:25;99578.19;;;8.06;77.68
67931;BME280;63902;52.000;5.954;2024-03-02T01:34:25;99583.47;;;8.06;77.87
67931;BME280;63902;52.000;5.954;2024-03-02T01:35:26;99579.06;;;8.06;77.96
67931;BME280;63902;52.000;5.954;2024-03-02T01:36:26;99580.00;;;8.05;78.04
67931;BME280;63902;52.000;5.954;2024-03-02T01:37:26;99576.50;;;8.05;78.22
67931;BME280;63902;52.000;5.954;2024-03-02T01:38:28;99579.22;;;8.03;78.24
67931;BME280;63902;52.000;5.954;2024-03-02T01:39:29;99577.50;;;8.02;78.33
67931;BME280;63902;52.000;5.954;2024-03-02T01:40:29;99574.94;;;8.01;78.29
67931;BME280;63902;52.000;5.954;2024-03-02T01:41:30;99577.66;;;7.99;78.05
67931;BME280;63902;52.000;5.954;2024-03-02T01:42:30;99548.47;;;7.85;78.05
67931;BME280;63902;52.000;5.954;2024-03-02T01:43:31;99576.66;;;8.02;78.43
67931;BME280;63902;52.000;5.954;2024-03-02T01:44:31;99577.44;;;8.04;78.48
67931;BME280;63902;52.000;5.954;2024-03-02T01:45:32;99579.22;;;8.03;78.73
67931;BME280;63902;52.000;5.954;2024-03-02T01:46:32;99575.72;;;8.03;78.74
67931;BME280;63902;52.000;5.954;2024-03-02T01:47:32;99568.13;;;7.97;78.66
67931;BME280;63902;52.000;5.954;2024-03-02T01:48:33;99589.72;;;8.05;78.99
67931;BME280;63902;52.000;5.954;2024-03-02T01:49:33;99587.84;;;8.07;78.88
67931;BME280;63902;52.000;5.954;2024-03-02T01:50:34;99585.22;;;8.07;79.04
67931;BME280;63902;52.000;5.954;2024-03-02T01:51:35;99589.63;;;8.06;78.96
67931;BME280;63902;52.000;5.954;2024-03-02T01:52:36;99586.13;;;8.06;79.08
67931;BME280;63902;52.000;5.954;2024-03-02T01:53:37;99579.16;;;8.05;79.37
67931;BME280;63902;52.000;5.954;2024-03-02T01:54:38;99573.88;;;8.05;79.54
67931;BME280;63902;52.000;5.954;2024-03-02T01:55:38;99581.00;;;8.03;79.76
67931;BME280;63902;52.000;5.954;2024-03-02T01:56:39;99573.94;;;8.03;79.78
67931;BME280;63902;52.000;5.954;2024-03-02T01:57:39;99577.44;;;8.04;79.71
67931;BME280;63902;52.000;5.954;2024-03-02T01:58:40;99557.41;;;8.00;79.67
67931;BME280;63902;52.000;5.954;2024-03-02T01:59:40;99552.91;;;8.02;79.67
67931;BME280;63902;52.000;5.954;2024-03-02T02:00:41;99558.19;;;8.02;79.88
67931;BME280;63902;52.000;5.954;2024-03-02T02:01:41;99556.44;;;8.01;79.90
67931;BME280;63902;52.000;5.954;2024-03-02T02:02:42;99560.81;;;8.02;80.09
67931;BME280;63902;52.000;5.954;2024-03-02T02:03:43;99533.31;;;7.89;80.15
67931;BME280;63902;52.000;5.954;2024-03-02T02:04:44;99553.06;;;7.99;80.32
67931;BME280;63902;52.000;5.954;2024-03-02T02:05:44;99544.28;;;7.98;80.26
67931;BME280;63902;52.000;5.954;2024-03-02T02:06:45;99548.69;;;7.98;80.28
67931;BME280;63902;52.000;5.954;2024-03-02T02:07:45;99553.22;;;7.96;80.50
67931;BME280;63902;52.000;5.954;2024-03-02T02:08:47;99550.56;;;7.96;80.70
67931;BME280;63902;52.000;5.954;2024-03-02T02:09:48;99541.88;;;7.94;80.59
67931;BME280;63902;52.000;5.954;2024-03-02T02:10:48;99549.84;;;7.92;80.72
67931;BME280;63902;52.000;5.954;2024-03-02T02:11:50;99553.44;;;7.91;80.89
67931;BME280;63902;52.000;5.954;2024-03-02T02:12:50;99540.28;;;7.90;80.87
67931;BME280;63902;52.000;5.954;2024-03-02T02:13:51;99535.91;;;7.90;81.06
67931;BME280;63902;52.000;5.954;2024-03-02T02:14:51;99533.47;;;7.85;81.17
67931;BME280;63902;52.000;5.954;2024-03-02T02:15:52;99538.59;;;7.89;81.20
67931;BME280;63902;52.000;5.954;2024-03-02T02:16:52;99536.91;;;7.88;81.42
67931;BME280;63902;52.000;5.954;2024-03-02T02:17:53;99534.31;;;7.86;81.25
67931;BME280;63902;52.000;5.954;2024-03-02T02:18:54;99529.22;;;7.83;81.43
67931;BME280;63902;52.000;5.954;2024-03-02T02:19:54;99539.53;;;7.88;81.30
67931;BME280;63902;52.000;5.954;2024-03-02T02:20:55;99547.47;;;7.88;81.40
67931;BME280;63902;52.000;5.954;2024-03-02T02:21:57;99544.97;;;7.84;81.41
67931;BME280;63902;52.000;5.954;2024-03-02T02:22:58;99542.50;;;7.81;81.63
67931;BME280;63902;52.000;5.954;2024-03-02T02:23:59;99543.25;;;7.83;81.73
67931;BME280;63902;52.000;5.954;2024-03-02T02:24:59;99538.91;;;7.82;81.73
67931;BME280;63902;52.000;5.954;2024-03-02T02:26:00;99524.47;;;7.72;81.88
67931;BME280;63902;52.000;5.954;2024-03-02T02:27:00;99538.13;;;7.80;81.73
67931;BME280;63902;52.000;5.954;2024-03-02T02:28:01;99547.84;;;7.80;82.06
67931;BME280;63902;52.000;5.954;2024-03-02T02:29:01;99549.63;;;7.79;82.03
67931;BME280;63902;52.000;5.954;2024-03-02T02:30:02;99553.19;;;7.78;81.92
67931;BME280;63902;52.000;5.954;2024-03-02T02:31:03;99544.50;;;7.76;82.18
67931;BME280;63902;52.000;5.954;2024-03-02T02:32:04;99543.72;;;7.74;82.43
67931;BME280;63902;52.000;5.954;2024-03-02T02:33:05;99544.50;;;7.76;82.39
67931;BME280;63902;52.000;5.954;2024-03-02T02:34:05;99545.41;;;7.75;82.25
67931;BME280;63902;52.000;5.954;2024-03-02T02:35:06;99544.56;;;7.75;82.39
67931;BME280;63902;52.000;5.954;2024-03-02T02:36:07;99546.38;;;7.74;82.48
67931;BME280;63902;52.000;5.954;2024-03-02T02:37:09;99546.38;;;7.74;82.51
67931;BME280;63902;52.000;5.954;2024-03-02T02:38:09;99541.09;;;7.74;82.54
67931;BME280;63902;52.000;5.954;2024-03-02T02:39:11;99539.38;;;7.73;82.73
67931;BME280;63902;52.000;5.954;2024-03-02T02:40:14;99541.94;;;7.75;82.59
67931;BME280;63902;52.000;5.954;2024-03-02T02:41:14;99539.38;;;7.73;82.58
67931;BME280;63902;52.000;5.954;2024-03-02T02:42:15;99535.13;;;7.71;82.78
67931;BME280;63902;52.000;5.954;2024-03-02T02:43:15;99536.81;;;7.72;82.58
67931;BME280;63902;52.000;5.954;2024-03-02T02:44:16;99529.84;;;7.71;82.66
67931;BME280;63902;52.000;5.954;2024-03-02T02:45:17;99533.38;;;7.70;82.73
67931;BME280;63902;52.000;5.954;2024-03-02T02:46:17;99497.59;;;7.47;82.79
67931;BME280;63902;52.000;5.954;2024-03-02T02:47:18;99545.72;;;7.69;82.82
67931;BME280;63902;52.000;5.954;2024-03-02T02:48:18;99546.59;;;7.70;83.04
67931;BME280;63902;52.000;5.954;2024-03-02T02:49:19;99541.41;;;7.68;82.96
67931;BME280;63902;52.000;5.954;2024-03-02T02:50:19;99546.69;;;7.68;82.84
67931;BME280;63902;52.000;5.954;2024-03-02T02:51:20;99541.41;;;7.68;83.15
67931;BME280;63902;52.000;5.954;2024-03-02T02:52:21;99542.25;;;7.69;83.01
67931;BME280;63902;52.000;5.954;2024-03-02T02:53:22;99538.75;;;7.68;83.11
67931;BME280;63902;52.000;5.954;2024-03-02T02:54:22;99540.44;;;7.69;83.01
67931;BME280;63902;52.000;5.954;2024-03-02T02:55:23;99504.50;;;7.49;83.08
67931;BME280;63902;52.000;5.954;2024-03-02T02:56:24;99525.88;;;7.62;82.75
67931;BME280;63902;52.000;5.954;2024-03-02T02:57:24;99530.00;;;7.68;83.01
67931;BME280;63902;52.000;5.954;2024-03-02T02:58:25;99533.53;;;7.67;83.18
67931;BME280;63902;52.000;5.954;2024-03-02T02:59:25;99535.31;;;7.66;83.02
67931;BME280;63902;52.000;5.954;2024-03-02T03:00:26;99526.03;;;7.59;83.06
67931;BME280;63902;52.000;5.954;2024-03-02T03:01:26;99540.81;;;7.61;83.27
67931;BME280;63902;52.000;5.954;2024-03-02T03:02:28;99533.38;;;7.52;83.36
67931;BME280;63902;52.000;5.954;2024-03-02T03:03:28;99529.88;;;7.52;83.35
67931;BME280;63902;52.000;5.954;2024-03-02T03:04:29;99543.56;;;7.60;83.49
67931;BME280;63902;52.000;5.954;2024-03-02T03:05:29;99540.91;;;7.60;83.58
67931;BME280;63902;52.000;5.954;2024-03-02T03:06:29;99525.56;;;7.51;83.89
67931;BME280;63902;52.000;5.954;2024-03-02T03:07:31;99528.78;;;7.56;83.61
67931;BME280;63902;52.000;5.954;2024-03-02T03:08:32;99527.09;;;7.55;84.20
67931;BME280;63902;52.000;5.954;2024-03-02T03:09:32;99540.28;;;7.55;84.20
67931;BME280;63902;52.000;5.954;2024-03-02T03:10:33;99539.34;;;7.56;84.04
67931;BME280;63902;52.000;5.954;2024-03-02T03:11:33;99533.16;;;7.57;83.83
67931;BME280;63902;52.000;5.954;2024-03-02T03:12:34;99533.47;;;7.51;83.94
67931;BME280;63902;52.000;5.954;2024-03-02T03:13:35;99540.28;;;7.55;83.98
67931;BME280;63902;52.000;5.954;2024-03-02T03:14:36;99541.22;;;7.54;83.76
67931;BME280;63902;52.000;5.954;2024-03-02T03:15:36;99538.59;;;7.54;84.00
67931;BME280;63902;52.000;5.954;2024-03-02T03:16:37;99531.59;;;7.53;83.86
67931;BME280;63902;52.000;5.954;2024-03-02T03:17:38;99535.16;;;7.52;83.95
67931;BME280;63902;52.000;5.954;2024-03-02T03:18:38;99542.13;;;7.53;83.91
67931;BME280;63902;52.000;5.954;2024-03-02T03:19:38;99543.88;;;7.54;83.73
67931;BME280;63902;52.000;5.954;2024-03-02T03:20:39;99548.25;;;7.53;83.71
67931;BME280;63902;52.000;5.954;2024-03-02T03:21:39;99537.81;;;7.52;83.68
67931;BME280;63902;52.000;5.954;2024-03-02T03:22:41;99521.66;;;7.40;83.71
67931;BME280;63902;52.000;5.954;2024-03-02T03:23:42;99535.16;;;7.52;83.69
67931;BME280;63902;52.000;5.954;2024-03-02T03:24:42;99536.00;;;7.52;83.70
67931;BME280;63902;52.000;5.954;2024-03-02T03:25:43;99540.44;;;7.52;83.70
67931;BME280;63902;52.000;5.954;2024-03-02T03:26:43;99542.22;;;7.51;83.73
67931;BME280;63902;52.000;5.954;2024-03-02T03:27:44;99542.28;;;7.50;83.73
67931;BME280;63902;52.000;5.954;2024-03-02T03:28:44;99515.88;;;7.32;83.58
67931;BME280;63902;52.000;5.954;2024-03-02T03:29:45;99547.66;;;7.48;83.65
67931;BME280;63902;52.000;5.954;2024-03-02T03:30:45;99554.63;;;7.49;83.78
67931;BME280;63902;52.000;5.954;2024-03-02T03:31:46;99551.16;;;7.49;83.75
67931;BME280;63902;52.000;5.954;2024-03-02T03:32:46;99546.72;;;7.49;83.65
67931;BME280;63902;52.000;5.954;2024-03-02T03:33:47;99545.88;;;7.49;83.68
67931;BME280;63902;52.000;5.954;2024-03-02T03:34:47;99547.72;;;7.47;83.78
67931;BME280;63902;52.000;5.954;2024-03-02T03:35:48;99546.03;;;7.46;83.83
67931;BME280;63902;52.000;5.954;2024-03-02T03:36:48;99550.44;;;7.45;83.68
67931;BME280;63902;52.000;5.954;2024-03-02T03:37:50;99562.75;;;7.45;83.83
67931;BME280;63902;52.000;5.954;2024-03-02T03:38:50;99523.41;;;7.23;84.00
67931;BME280;63902;52.000;5.954;2024-03-02T03:39:51;99538.69;;;7.33;83.92
67931;BME280;63902;52.000;5.954;2024-03-02T03:40:51;99571.63;;;7.44;84.05
67931;BME280;63902;52.000;5.954;2024-03-02T03:41:52;99576.09;;;7.42;83.90
67931;BME280;63902;52.000;5.954;2024-03-02T03:42:52;99580.47;;;7.43;83.90
67931;BME280;63902;52.000;5.954;2024-03-02T03:43:53;99564.69;;;7.41;84.22
67931;BME280;63902;52.000;5.954;2024-03-02T03:44:53;99558.56;;;7.40;84.02
67931;BME280;63902;52.000;5.954;2024-03-02T03:45:53;99557.78;;;7.38;84.14
67931;BME280;63902;52.000;5.954;2024-03-02T03:46:54;99564.69;;;7.41;84.17
67931;BME280;63902;52.000;5.954;2024-03-02T03:47:54;99569.97;;;7.41;83.88
67931;BME280;63902;52.000;5.954;2024-03-02T03:48:55;99571.81;;;7.39;84.05
67931;BME280;63902;52.000;5.954;2024-03-02T03:49:55;99572.69;;;7.39;84.27
67931;BME280;63902;52.000;5.954;2024-03-02T03:50:56;99567.47;;;7.38;84.32
67931;BME280;63902;52.000;5.954;2024-03-02T03:51:56;99568.44;;;7.37;84.56
67931;BME280;63902;52.000;5.954;2024-03-02T03:52:58;99569.44;;;7.34;84.73
67931;BME280;63902;52.000;5.954;2024-03-02T03:53:58;99573.75;;;7.35;84.73
67931;BME280;63902;52.000;5.954;2024-03-02T03:54:59;99572.13;;;7.33;84.62
67931;BME280;63902;52.000;5.954;2024-03-02T03:55:59;99570.34;;;7.33;84.85
67931;BME280;63902;52.000;5.954;2024-03-02T03:57:00;99573.84;;;7.34;84.61
67931;BME280;63902;52.000;5.954;2024-03-02T03:58:00;99583.53;;;7.33;84.52
67931;BME280;63902;52.000;5.954;2024-03-02T03:59:01;99578.34;;;7.32;84.11
67931;BME280;63902;52.000;5.954;2024-03-02T04:00:01;99573.97;;;7.31;84.50
67931;BME280;63902;52.000;5.954;2024-03-02T04:01:02;99572.28;;;7.30;84.40
67931;BME280;63902;52.000;5.954;2024-03-02T04:02:03;99573.22;;;7.29;84.80
67931;BME280;63902;52.000;5.954;2024-03-02T04:03:04;99576.69;;;7.29;84.68
67931;BME280;63902;52.000;5.954;2024-03-02T04:04:04;99573.28;;;7.27;84.79
67931;BME280;63902;52.000;5.954;2024-03-02T04:05:06;99570.72;;;7.26;84.80
67931;BME280;63902;52.000;5.954;2024-03-02T04:06:06;99569.84;;;7.25;84.96
67931;BME280;63902;52.000;5.954;2024-03-02T04:07:07;99574.25;;;7.25;84.91
67931;BME280;63902;52.000;5.954;2024-03-02T04:08:09;99569.84;;;7.25;85.06
67931;BME280;63902;52.000;5.954;2024-03-02T04:09:09;99568.16;;;7.24;85.18
67931;BME280;63902;52.000;5.954;2024-03-02T04:10:10;99569.94;;;7.24;84.99
67931;BME280;63902;52.000;5.954;2024-03-02T04:11:10;99578.78;;;7.23;85.37
67931;BME280;63902;52.000;5.954;2024-03-02T04:12:11;99571.88;;;7.20;85.23
67931;BME280;63902;52.000;5.954;2024-03-02T04:13:11;99581.47;;;7.21;85.48
67931;BME280;63902;52.000;5.954;2024-03-02T04:14:12;99555.19;;;7.01;85.41
67931;BME280;63902;52.000;5.954;2024-03-02T04:15:12;99597.31;;;7.21;85.50
67931;BME280;63902;52.000;5.954;2024-03-02T04:16:13;99599.09;;;7.21;85.39
67931;BME280;63902;52.000;5.954;2024-03-02T04:17:13;99603.50;;;7.20;85.42
67931;BME280;63902;52.000;5.954;2024-03-02T04:18:14;99599.09;;;7.21;85.43
67931;BME280;63902;52.000;5.954;2024-03-02T04:19:14;99595.59;;;7.20;85.43
67931;BME280;63902;52.000;5.954;2024-03-02T04:20:15;99593.88;;;7.19;85.79
67931;BME280;63902;52.000;5.954;2024-03-02T04:21:15;99580.69;;;7.19;85.72
67931;BME280;63902;52.000;5.954;2024-03-02T04:22:15;99580.69;;;7.19;86.07
67931;BME280;63902;52.000;5.954;2024-03-02T04:23:17;99578.03;;;7.19;85.59
67931;BME280;63902;52.000;5.954;2024-03-02T04:24:18;99576.34;;;7.18;85.41
67931;BME280;63902;52.000;5.954;2024-03-02T04:25:18;99572.00;;;7.17;85.50
67931;BME280;63902;52.000;5.954;2024-03-02T04:26:19;99583.41;;;7.17;85.48
67931;BME280;63902;52.000;5.954;2024-03-02T04:27:19;99579.94;;;7.17;85.70
67931;BME280;63902;52.000;5.954;2024-03-02T04:28:20;99566.16;;;7.10;85.60
67931;BME280;63902;52.000;5.954;2024-03-02T04:29:20;99577.41;;;7.14;86.33
67931;BME280;63902;52.000;5.954;2024-03-02T04:30:21;99569.59;;;7.12;86.57
67931;BME280;63902;52.000;5.954;2024-03-02T04:31:21;99572.13;;;7.14;86.18
67931;BME280;63902;52.000;5.954;2024-03-02T04:32:22;99575.72;;;7.13;86.05
67931;BME280;63902;52.000;5.954;2024-03-02T04:33:22;99579.28;;;7.12;86.11
67931;BME280;63902;52.000;5.954;2024-03-02T04:34:23;99587.09;;;7.13;86.07
67931;BME280;63902;52.000;5.954;2024-03-02T04:35:23;99587.19;;;7.12;86.02
67931;BME280;63902;52.000;5.954;2024-03-02T04:36:24;99581.97;;;7.10;85.87
67931;BME280;63902;52.000;5.954;2024-03-02T04:37:24;99588.09;;;7.11;85.90
67931;BME280;63902;52.000;5.954;2024-03-02T04:38:26;99583.75;;;7.10;86.38
67931;BME280;63902;52.000;5.954;2024-03-02T04:39:26;99581.97;;;7.10;86.17
67931;BME280;63902;52.000;5.954;2024-03-02T04:40:27;99570.94;;;7.02;86.03
67931;BME280;63902;52.000;5.954;2024-03-02T04:41:27;99585.56;;;7.09;85.99
67931;BME280;63902;52.000;5.954;2024-03-02T04:42:28;99593.47;;;7.09;85.88
67931;BME280;63902;52.000;5.954;2024-03-02T04:43:28;99595.25;;;7.09;85.69
67931;BME280;63902;52.000;5.954;2024-03-02T04:44:29;99595.31;;;7.07;85.92
67931;BME280;63902;52.000;5.954;2024-03-02T04:45:29;99595.50;;;7.03;86.23
67931;BME280;63902;52.000;5.954;2024-03-02T04:46:31;99597.94;;;7.07;86.31
67931;BME280;63902;52.000;5.954;2024-03-02T04:47:31;99607.63;;;7.07;86.43
67931;BME280;63902;52.000;5.954;2024-03-02T04:48:32;99595.38;;;7.06;86.06
67931;BME280;63902;52.000;5.954;2024-03-02T04:49:32;99595.38;;;7.06;85.99
67931;BME280;63902;52.000;5.954;2024-03-02T04:50:33;99597.22;;;7.04;86.01
67931;BME280;63902;52.000;5.954;2024-03-02T04:51:33;99598.13;;;7.03;85.98
67931;BME280;63902;52.000;5.954;2024-03-02T04:52:34;99603.50;;;7.01;85.97
67931;BME280;63902;52.000;5.954;2024-03-02T04:53:35;99602.66;;;7.01;86.26
67931;BME280;63902;52.000;5.954;2024-03-02T04:54:36;99607.06;;;7.00;86.27
67931;BME280;63902;52.000;5.954;2024-03-02T04:55:36;99608.06;;;6.98;86.40
67931;BME280;63902;52.000;5.954;2024-03-02T04:56:37;99603.78;;;6.95;86.22
67931;BME280;63902;52.000;5.954;2024-03-02T04:57:37;99604.78;;;6.92;86.39
67931;BME280;63902;52.000;5.954;2024-03-02T04:58:38;99605.78;;;6.90;86.40
67931;BME280;63902;52.000;5.954;2024-03-02T04:59:38;99605.06;;;6.86;86.28
67931;BME280;63902;52.000;5.954;2024-03-02T05:00:39;99602.44;;;6.86;86.42
67931;BME280;63902;52.000;5.954;2024-03-02T05:01:39;99602.50;;;6.85;86.50
67931;BME280;63902;52.000;5.954;2024-03-02T05:02:39;99610.44;;;6.83;86.74
67931;BME280;63902;52.000;5.954;2024-03-02T05:03:40;99611.31;;;6.84;86.68
67931;BME280;63902;52.000;5.954;2024-03-02T05:04:40;99607.06;;;6.81;86.94
67931;BME280;63902;52.000;5.954;2024-03-02T05:05:41;99615.84;;;6.80;86.80
67931;BME280;63902;52.000;5.954;2024-03-02T05:06:41;99611.56;;;6.78;86.92
67931;BME280;63902;52.000;5.954;2024-03-02T05:07:42;99614.34;;;6.75;87.04
67931;BME280;63902;52.000;5.954;2024-03-02T05:08:43;99622.25;;;6.75;86.98
67931;BME280;63902;52.000;5.954;2024-03-02T05:09:44;99624.03;;;6.74;87.40
67931;BME280;63902;52.000;5.954;2024-03-02T05:10:44;99624.03;;;6.74;87.14
67931;BME280;63902;52.000;5.954;2024-03-02T05:11:45;99617.06;;;6.73;87.26
67931;BME280;63902;52.000;5.954;2024-03-02T05:12:45;99622.25;;;6.75;87.37
67931;BME280;63902;52.000;5.954;2024-03-02T05:13:46;99623.13;;;6.75;87.15
67931;BME280;63902;52.000;5.954;2024-03-02T05:14:46;99622.25;;;6.75;87.17
67931;BME280;63902;52.000;5.954;2024-03-02T05:15:46;99622.34;;;6.73;86.93
67931;BME280;63902;52.000;5.954;2024-03-02T05:16:47;99625.13;;;6.70;87.10
67931;BME280;63902;52.000;5.954;2024-03-02T05:17:47;99630.38;;;6.70;87.36
67931;BME280;63902;52.000;5.954;2024-03-02T05:18:48;99623.47;;;6.67;87.42
67931;BME280;63902;52.000;5.954;2024-03-02T05:19:48;99628.59;;;6.70;87.34
67931;BME280;63902;52.000;5.954;2024-03-02T05:20:49;99625.16;;;6.68;87.23
67931;BME280;63902;52.000;5.954;2024-03-02T05:21:49;99620.84;;;6.67;87.00
67931;BME280;63902;52.000;5.954;2024-03-02T05:22:50;99628.78;;;6.66;87.17
67931;BME280;63902;52.000;5.954;2024-03-02T05:23:51;99628.13;;;6.61;87.24
67931;BME280;63902;52.000;5.954;2024-03-02T05:24:52;99622.16;;;6.57;87.12
67931;BME280;63902;52.000;5.954;2024-03-02T05:25:52;99626.56;;;6.57;87.38